Time;durP1;ratioP1;P1;durP2;ratioP2;P2;SDS_P1;SDS_P2;PMS_P1;PMS_P2;Temp;Humidity;BMP_temperature;BMP_pressure;BME280_temperature;BME280_humidity;BME280_pressure;Samples;Min_cycle;Max_cycle;Signal;HPM_P1;HPM_P2
2022/03/17 00:01:12;;;;;;;2.80;2.60;;;11.70;99.90;;;;;;5036162;28;20186;-70
2022/03/17 00:03:38;;;;;;;2.13;1.37;;;11.70;99.90;;;;;;5034267;28;20195;-70
2022/03/17 00:06:05;;;;;;;4.07;2.07;;;11.70;99.90;;;;;;5035167;28;20629;-70
2022/03/17 00:08:31;;;;;;;9.20;3.50;;;11.70;99.90;;;;;;5035461;28;20194;-70
2022/03/17 00:10:57;;;;;;;3.00;2.80;;;11.70;99.90;;;;;;5035395;28;20418;-70
2022/03/17 00:13:22;;;;;;;4.23;3.83;;;11.70;99.90;;;;;;5033972;28;20191;-70
2022/03/17 00:15:48;;;;;;;2.30;2.07;;;11.70;99.90;;;;;;5035017;28;20645;-70
2022/03/17 00:18:13;;;;;;;3.63;2.53;;;11.70;99.90;;;;;;5034507;28;20218;-70
2022/03/17 00:20:39;;;;;;;1.63;1.53;;;11.60;99.90;;;;;;5035236;28;20179;-70
2022/03/17 00:23:05;;;;;;;1.30;1.00;;;11.60;99.90;;;;;;5035223;28;20644;-70
2022/03/17 00:25:32;;;;;;;4.67;2.23;;;11.60;99.90;;;;;;5035246;28;20174;-70
2022/03/17 00:27:57;;;;;;;2.80;1.43;;;11.60;99.90;;;;;;5035215;28;20454;-70
2022/03/17 00:30:23;;;;;;;8.63;3.83;;;11.60;99.90;;;;;;5034281;28;20417;-70
2022/03/17 00:32:49;;;;;;;3.00;2.47;;;11.60;99.90;;;;;;5035312;28;20168;-70
2022/03/17 00:35:36;;;;;;;2.23;2.03;;;11.60;99.90;;;;;;5034837;28;20496;-70
2022/03/17 00:38:14;;;;;;;2.03;1.63;;;11.60;99.90;;;;;;5034566;28;20183;-70
2022/03/17 00:40:42;;;;;;;3.00;2.80;;;11.50;99.90;;;;;;5034979;28;20429;-70
2022/03/17 00:43:11;;;;;;;22.37;3.90;;;11.60;99.90;;;;;;5035248;28;20476;-70
2022/03/17 00:45:37;;;;;;;1.10;1.00;;;11.50;99.90;;;;;;5035004;28;20572;-70
2022/03/17 00:48:03;;;;;;;4.93;2.20;;;11.50;99.90;;;;;;5033783;28;20467;-70
2022/03/17 00:50:29;;;;;;;3.13;2.80;;;11.50;99.90;;;;;;5034625;28;20422;-70
2022/03/17 00:52:54;;;;;;;6.50;1.50;;;11.40;99.90;;;;;;5034344;28;20453;-70
2022/03/17 00:55:21;;;;;;;8.17;2.33;;;11.40;99.90;;;;;;5034431;28;20477;-70
2022/03/17 00:57:47;;;;;;;2.23;1.83;;;11.40;99.90;;;;;;5034120;28;20175;-70
2022/03/17 01:00:14;;;;;;;3.03;1.80;;;11.40;99.90;;;;;;5034392;28;20433;-70
2022/03/17 01:02:41;;;;;;;5.53;4.83;;;11.40;99.90;;;;;;5034110;28;20429;-70
2022/03/17 01:05:07;;;;;;;2.10;1.63;;;11.40;99.90;;;;;;5033929;28;20434;-70
2022/03/17 01:07:33;;;;;;;3.63;1.80;;;11.50;99.90;;;;;;5033905;28;20461;-70
2022/03/17 01:09:59;;;;;;;4.90;3.60;;;11.50;99.90;;;;;;5034638;28;20413;-70
2022/03/17 01:12:24;;;;;;;4.10;2.47;;;11.50;99.90;;;;;;5034662;28;20945;-70
2022/03/17 01:14:50;;;;;;;9.50;3.20;;;11.40;99.90;;;;;;5034263;28;20195;-70
2022/03/17 01:17:16;;;;;;;3.60;3.27;;;11.40;99.90;;;;;;5033971;28;20325;-70
2022/03/17 01:19:41;;;;;;;5.30;3.20;;;11.40;99.90;;;;;;5034040;28;20177;-70
2022/03/17 01:22:07;;;;;;;2.60;2.20;;;11.40;99.90;;;;;;5034774;28;20644;-70
2022/03/17 01:24:33;;;;;;;4.87;2.83;;;11.40;99.90;;;;;;5033470;28;20219;-70
2022/03/17 01:26:59;;;;;;;4.83;3.33;;;11.40;99.90;;;;;;5034189;28;20863;-70
2022/03/17 01:29:26;;;;;;;2.87;2.67;;;11.40;99.90;;;;;;5033875;28;20195;-70
2022/03/17 01:31:52;;;;;;;3.60;2.30;;;11.40;99.90;;;;;;5033686;28;20168;-70
2022/03/17 01:34:18;;;;;;;2.93;2.60;;;11.40;99.90;;;;;;5033689;28;20946;-70
2022/03/17 01:36:43;;;;;;;9.90;2.23;;;11.40;99.90;;;;;;5033575;28;20201;-70
2022/03/17 01:39:09;;;;;;;5.70;2.57;;;11.50;99.90;;;;;;5033637;28;20660;-70
2022/03/17 01:41:35;;;;;;;2.00;1.90;;;11.40;99.90;;;;;;5033423;28;20175;-70
2022/03/17 01:44:00;;;;;;;2.47;2.27;;;11.40;99.90;;;;;;5033568;28;20276;-70
2022/03/17 01:46:26;;;;;;;1.47;1.30;;;11.50;99.90;;;;;;5034358;28;20228;-70
2022/03/17 01:48:52;;;;;;;5.77;2.90;;;11.40;99.90;;;;;;5033673;28;20461;-70
2022/03/17 01:51:18;;;;;;;1.37;1.27;;;11.50;99.90;;;;;;5033414;28;20175;-70
2022/03/17 01:53:43;;;;;;;5.57;3.20;;;11.40;99.90;;;;;;5033725;28;20799;-70
2022/03/17 01:56:09;;;;;;;3.87;1.70;;;11.50;99.90;;;;;;5033347;28;20191;-70
2022/03/17 01:58:35;;;;;;;3.63;2.77;;;11.40;99.90;;;;;;5033513;28;20732;-70
2022/03/17 02:01:01;;;;;;;2.40;2.20;;;11.40;99.90;;;;;;5033300;28;20180;-70
2022/03/17 02:03:27;;;;;;;1.60;1.50;;;11.30;99.90;;;;;;5033610;28;20191;-70
2022/03/17 02:05:55;;;;;;;5.50;3.27;;;11.30;99.90;;;;;;5033180;28;20845;-70
2022/03/17 02:08:21;;;;;;;4.50;2.10;;;11.30;99.90;;;;;;5032808;28;20215;-70
2022/03/17 02:13:31;;;;;;;1.67;1.53;;;11.30;99.90;;;;;;5027029;28;20209;-70
2022/03/17 02:15:57;;;;;;;4.90;3.80;;;11.30;99.90;;;;;;5032787;28;20500;-69
2022/03/17 02:18:23;;;;;;;4.60;4.20;;;11.30;99.90;;;;;;5032595;28;20171;-70
2022/03/17 02:20:49;;;;;;;4.10;2.17;;;11.30;99.90;;;;;;5032909;28;20175;-70
2022/03/17 02:26:02;;;;;;;1.77;1.47;;;11.20;99.90;;;;;;5032601;28;20436;-70
2022/03/17 02:28:29;;;;;;;4.80;2.50;;;11.30;99.90;;;;;;5032282;28;20489;-69
2022/03/17 02:30:56;;;;;;;2.87;2.67;;;11.20;99.90;;;;;;5032626;28;20426;-69
2022/03/17 02:33:23;;;;;;;4.87;1.27;;;11.30;99.90;;;;;;5033221;28;20438;-70
2022/03/17 02:35:51;;;;;;;7.07;4.27;;;11.20;99.90;;;;;;5032473;28;20426;-70
2022/03/17 02:38:18;;;;;;;5.10;2.80;;;11.20;99.90;;;;;;5033296;28;20575;-70
2022/03/17 02:40:48;;;;;;;2.77;2.57;;;11.20;99.90;;;;;;5033667;28;20418;-70
2022/03/17 02:43:14;;;;;;;2.57;1.77;;;11.20;99.90;;;;;;5033429;28;20457;-70
2022/03/17 02:45:42;;;;;;;3.53;3.23;;;11.20;99.90;;;;;;5033131;28;20759;-70
2022/03/17 02:48:08;;;;;;;9.53;2.37;;;11.20;99.90;;;;;;5032678;28;20555;-70
2022/03/17 02:50:34;;;;;;;2.83;2.00;;;11.20;99.90;;;;;;5032994;28;20454;-70
2022/03/17 02:53:05;;;;;;;7.10;2.63;;;11.20;99.90;;;;;;5033026;28;20429;-70
2022/03/17 02:55:35;;;;;;;9.33;2.70;;;11.30;99.90;;;;;;5032644;28;20535;-70
2022/03/17 02:58:01;;;;;;;4.57;3.00;;;11.40;99.90;;;;;;5032777;28;20433;-70
2022/03/17 03:00:27;;;;;;;5.90;5.50;;;11.40;99.90;;;;;;5031977;28;20444;-70
2022/03/17 03:02:52;;;;;;;3.67;3.43;;;11.40;99.90;;;;;;5032506;28;20237;-70
2022/03/17 03:05:18;;;;;;;2.70;2.50;;;11.30;99.90;;;;;;5031793;28;20208;-70
2022/03/17 03:07:44;;;;;;;2.60;2.00;;;11.40;99.90;;;;;;5031772;28;20195;-70
2022/03/17 03:10:10;;;;;;;3.40;1.57;;;11.30;99.90;;;;;;5032059;28;20423;-70
2022/03/17 03:12:37;;;;;;;6.40;2.73;;;11.30;99.90;;;;;;5031686;28;20174;-70
2022/03/17 03:15:03;;;;;;;6.90;4.43;;;11.30;99.90;;;;;;5032530;28;20990;-70
2022/03/17 03:17:29;;;;;;;10.47;6.70;;;11.30;99.90;;;;;;5032417;28;20411;-70
2022/03/17 03:19:55;;;;;;;4.70;4.30;;;11.30;99.90;;;;;;5032913;28;20418;-70
2022/03/17 03:22:20;;;;;;;7.27;2.83;;;11.30;99.90;;;;;;5032232;28;20222;-70
2022/03/17 03:24:46;;;;;;;5.83;2.90;;;11.20;99.90;;;;;;5032545;28;20785;-70
2022/03/17 03:27:12;;;;;;;2.37;2.17;;;11.30;99.90;;;;;;5032361;28;20175;-70
2022/03/17 03:29:38;;;;;;;2.40;2.20;;;11.30;99.90;;;;;;5032480;28;20237;-70
2022/03/17 03:32:04;;;;;;;4.60;3.03;;;11.30;99.90;;;;;;5032649;28;20640;-70
2022/03/17 03:34:30;;;;;;;6.90;1.97;;;11.30;99.90;;;;;;5031867;28;20192;-70
2022/03/17 03:39:40;;;;;;;2.63;1.90;;;11.40;99.90;;;;;;5032404;28;20494;-70
2022/03/17 03:42:07;;;;;;;6.20;4.20;;;11.40;99.90;;;;;;5032182;28;20426;-70
2022/03/17 03:44:33;;;;;;;6.10;3.43;;;11.40;99.90;;;;;;5031626;28;20533;-70
2022/03/17 03:46:59;;;;;;;2.90;2.50;;;11.40;99.90;;;;;;5031031;28;20517;-70
2022/03/17 03:49:25;;;;;;;1.73;1.40;;;11.40;99.90;;;;;;5031656;28;20882;-70
2022/03/17 03:51:50;;;;;;;5.07;4.67;;;11.50;99.90;;;;;;5031541;28;20198;-69
2022/03/17 03:54:17;;;;;;;4.10;2.60;;;11.50;99.90;;;;;;5031202;28;20199;-70
2022/03/17 03:56:43;;;;;;;5.00;4.70;;;11.50;99.90;;;;;;5031431;28;20175;-70
2022/03/17 04:01:44;;;;;;;12.73;3.37;;;11.60;99.90;;;;;;5032199;28;20428;-70
2022/03/17 04:04:11;;;;;;;4.43;4.13;;;11.50;99.90;;;;;;5031211;28;20453;-70
2022/03/17 04:06:41;;;;;;;3.60;3.40;;;11.60;99.90;;;;;;5031151;28;20942;-69
2022/03/17 04:09:07;;;;;;;5.13;2.80;;;11.70;99.90;;;;;;5031059;28;20830;-70
2022/03/17 04:11:32;;;;;;;5.47;2.67;;;11.70;99.90;;;;;;5031433;28;20541;-70
2022/03/17 04:13:58;;;;;;;3.53;2.40;;;11.80;99.90;;;;;;5031347;28;20194;-70
2022/03/17 04:16:23;;;;;;;4.50;3.60;;;11.80;99.90;;;;;;5031301;28;20251;-70
2022/03/17 04:18:49;;;;;;;15.47;2.77;;;11.80;99.90;;;;;;5032008;28;20175;-70
2022/03/17 04:21:14;;;;;;;3.23;2.30;;;11.90;99.90;;;;;;5031814;28;20251;-70
2022/03/17 04:23:40;;;;;;;4.30;2.60;;;11.90;99.90;;;;;;5033372;28;20226;-70
2022/03/17 04:26:05;;;;;;;2.50;2.30;;;12.00;99.90;;;;;;5036129;28;20206;-70
2022/03/17 04:28:31;;;;;;;2.00;1.90;;;11.90;99.90;;;;;;5035611;28;20223;-70
2022/03/17 04:30:56;;;;;;;5.20;3.10;;;11.90;99.90;;;;;;5035648;28;20680;-70
2022/03/17 04:33:22;;;;;;;2.87;2.27;;;11.90;99.90;;;;;;5035259;28;20214;-70
2022/03/17 04:35:47;;;;;;;3.80;3.40;;;11.90;99.90;;;;;;5035320;28;20179;-70
2022/03/17 04:38:13;;;;;;;3.33;2.47;;;11.90;99.90;;;;;;5035623;28;20179;-70
2022/03/17 04:40:41;;;;;;;4.00;1.33;;;11.90;99.90;;;;;;5035968;28;20176;-70
2022/03/17 04:43:06;;;;;;;4.97;3.37;;;11.90;99.90;;;;;;5034629;28;20168;-70
2022/03/17 04:45:32;;;;;;;2.17;1.90;;;11.90;99.90;;;;;;5034510;28;20487;-70
2022/03/17 04:47:57;;;;;;;5.63;3.30;;;11.90;99.90;;;;;;5034124;28;20198;-70
2022/03/17 04:50:23;;;;;;;3.43;3.23;;;11.90;99.90;;;;;;5034775;28;20764;-70
2022/03/17 04:55:33;;;;;;;4.93;2.77;;;11.80;99.90;;;;;;5020601;28;20695;-70
2022/03/17 04:57:59;;;;;;;3.07;1.90;;;11.80;99.90;;;;;;5034370;28;20462;-70
2022/03/17 05:00:25;;;;;;;4.23;2.57;;;11.80;99.90;;;;;;5034071;28;20178;-70
2022/03/17 05:02:50;;;;;;;5.63;4.57;;;11.80;99.90;;;;;;5034340;28;20732;-70
2022/03/17 05:05:16;;;;;;;5.90;4.57;;;11.70;99.90;;;;;;5033951;28;20547;-70
2022/03/17 05:07:41;;;;;;;3.80;2.80;;;11.70;99.90;;;;;;5034059;28;20191;-70
2022/03/17 05:10:09;;;;;;;2.73;1.33;;;11.70;99.90;;;;;;5034204;28;20182;-74
2022/03/17 05:12:34;;;;;;;3.23;2.97;;;11.70;99.90;;;;;;5034917;28;20160;-74
2022/03/17 05:15:00;;;;;;;7.80;2.90;;;11.70;99.90;;;;;;5034476;28;20442;-70
2022/03/17 05:17:26;;;;;;;3.83;3.33;;;11.70;99.90;;;;;;5033838;28;20171;-70
2022/03/17 05:19:51;;;;;;;2.13;2.03;;;11.70;99.90;;;;;;5034106;28;20179;-70
2022/03/17 05:22:17;;;;;;;1.43;1.27;;;11.60;99.90;;;;;;5033871;28;20202;-70
2022/03/17 05:24:42;;;;;;;2.40;2.30;;;11.60;99.90;;;;;;5033886;28;20231;-70
2022/03/17 05:27:08;;;;;;;3.00;2.07;;;11.60;99.90;;;;;;5033691;28;20180;-70
2022/03/17 05:29:33;;;;;;;4.33;3.00;;;11.60;99.90;;;;;;5033814;28;20211;-70
2022/03/17 05:31:59;;;;;;;5.77;1.80;;;11.50;99.90;;;;;;5033596;28;20178;-70
2022/03/17 05:34:25;;;;;;;3.67;1.40;;;11.50;99.90;;;;;;5033689;28;20254;-70
2022/03/17 05:36:50;;;;;;;2.47;1.90;;;11.50;99.90;;;;;;5033654;28;20653;-70
2022/03/17 05:39:16;;;;;;;3.50;2.60;;;11.50;99.90;;;;;;5033757;28;20664;-70
2022/03/17 05:41:41;;;;;;;4.17;1.33;;;11.60;99.90;;;;;;5033795;28;20179;-70
2022/03/17 05:44:08;;;;;;;3.00;2.80;;;11.60;99.90;;;;;;5033546;28;20272;-70
2022/03/17 05:46:33;;;;;;;3.90;1.70;;;11.60;99.90;;;;;;5033237;28;20225;-70
2022/03/17 05:49:00;;;;;;;2.20;1.83;;;11.70;99.90;;;;;;5034276;28;20466;-70
2022/03/17 05:51:25;;;;;;;2.13;1.63;;;11.70;99.90;;;;;;5033662;28;20179;-70
2022/03/17 05:53:51;;;;;;;4.60;2.40;;;11.70;99.90;;;;;;5033273;28;20438;-70
2022/03/17 05:56:16;;;;;;;1.03;0.93;;;11.70;99.90;;;;;;5034130;28;20183;-70
2022/03/17 05:58:42;;;;;;;3.87;3.47;;;11.60;99.90;;;;;;5033679;28;20636;-70
2022/03/17 06:01:07;;;;;;;1.47;1.37;;;11.60;99.90;;;;;;5033961;28;20178;-70
2022/03/17 06:03:34;;;;;;;1.67;0.73;;;11.50;99.90;;;;;;5033136;28;20354;-70
2022/03/17 06:06:00;;;;;;;2.93;2.70;;;11.50;99.90;;;;;;5032739;28;20175;-71
2022/03/17 06:08:26;;;;;;;2.50;1.73;;;11.40;99.90;;;;;;5032780;28;20448;-71
2022/03/17 06:10:52;;;;;;;3.57;3.27;;;11.40;99.90;;;;;;5032894;28;20164;-70
2022/03/17 06:13:18;;;;;;;3.77;2.67;;;11.30;99.90;;;;;;5033235;28;20774;-70
2022/03/17 06:15:44;;;;;;;1.43;1.33;;;11.20;99.90;;;;;;5033043;28;20171;-70
2022/03/17 06:18:10;;;;;;;2.13;1.93;;;11.20;99.90;;;;;;5032780;28;20760;-70
2022/03/17 06:20:37;;;;;;;2.97;1.57;;;11.20;99.90;;;;;;5033047;28;20744;-70
2022/03/17 06:23:04;;;;;;;2.83;1.83;;;11.10;99.90;;;;;;5032858;28;20414;-70
2022/03/17 06:25:32;;;;;;;2.73;2.53;;;11.10;99.90;;;;;;5033005;28;21050;-70
2022/03/17 06:27:58;;;;;;;3.23;1.93;;;11.10;99.90;;;;;;5031404;28;20447;-71
2022/03/17 06:30:26;;;;;;;3.23;2.60;;;11.00;99.90;;;;;;5033203;28;20418;-70
2022/03/17 06:32:54;;;;;;;4.80;2.90;;;11.00;99.90;;;;;;5032505;28;20524;-70
2022/03/17 06:35:22;;;;;;;5.50;1.30;;;11.00;99.90;;;;;;5032550;28;20939;-70
2022/03/17 06:37:51;;;;;;;2.17;1.20;;;11.00;99.90;;;;;;5032447;28;20503;-70
2022/03/17 06:40:17;;;;;;;3.77;3.47;;;11.00;99.90;;;;;;5031455;28;20445;-70
2022/03/17 06:42:43;;;;;;;2.50;2.37;;;11.00;99.90;;;;;;5032790;28;20418;-70
2022/03/17 06:45:10;;;;;;;1.53;1.43;;;10.90;99.90;;;;;;5032440;28;20848;-70
2022/03/17 06:47:36;;;;;;;7.43;1.97;;;10.90;99.90;;;;;;5032200;28;20922;-70
2022/03/17 06:50:02;;;;;;;2.23;1.60;;;10.90;99.90;;;;;;5032486;28;20446;-71
2022/03/17 06:52:27;;;;;;;0.87;0.87;;;10.90;99.90;;;;;;5032478;28;20428;-70
2022/03/17 06:54:53;;;;;;;1.17;1.07;;;10.90;99.90;;;;;;5031887;28;20962;-71
2022/03/17 06:57:22;;;;;;;3.07;2.87;;;10.80;99.90;;;;;;5031885;28;20174;-70
2022/03/17 06:59:49;;;;;;;4.20;2.13;;;10.80;99.90;;;;;;5032118;28;20228;-70
2022/03/17 07:02:15;;;;;;;1.13;0.87;;;10.80;99.90;;;;;;5031931;28;20429;-70
2022/03/17 07:04:42;;;;;;;9.97;1.63;;;10.80;99.90;;;;;;5032015;28;20434;-70
2022/03/17 07:07:07;;;;;;;2.57;2.37;;;10.80;99.90;;;;;;5030274;28;20461;-70
2022/03/17 07:09:34;;;;;;;1.40;1.10;;;10.80;99.90;;;;;;5032053;28;20488;-70
2022/03/17 07:12:00;;;;;;;0.77;0.73;;;10.80;99.90;;;;;;5032017;28;20417;-70
2022/03/17 07:14:26;;;;;;;1.87;1.13;;;10.80;99.90;;;;;;5031898;28;20438;-70
2022/03/17 07:16:52;;;;;;;2.03;1.47;;;10.80;99.90;;;;;;5031669;28;20424;-70
2022/03/17 07:19:17;;;;;;;8.77;2.50;;;10.70;99.90;;;;;;5015623;28;20468;-70
2022/03/17 07:21:43;;;;;;;2.50;1.43;;;10.70;99.90;;;;;;5031749;28;20187;-71
2022/03/17 07:24:09;;;;;;;1.03;0.60;;;10.70;99.90;;;;;;5031753;28;20238;-71
2022/03/17 07:26:36;;;;;;;1.20;0.90;;;10.60;99.90;;;;;;5031722;28;20170;-70
2022/03/17 07:29:03;;;;;;;0.70;0.53;;;10.60;99.90;;;;;;5031208;28;20461;-70
2022/03/17 07:31:29;;;;;;;1.63;0.80;;;10.70;99.90;;;;;;5031688;28;20410;-70
2022/03/17 07:33:55;;;;;;;1.13;0.97;;;10.70;99.90;;;;;;5031484;28;20584;-70
2022/03/17 07:36:21;;;;;;;2.70;1.00;;;10.70;99.90;;;;;;5030563;28;20493;-70
2022/03/17 07:38:47;;;;;;;1.20;1.07;;;10.70;99.90;;;;;;5031319;28;20175;-70
2022/03/17 07:41:15;;;;;;;1.80;1.70;;;10.70;99.90;;;;;;5031189;28;20436;-70
2022/03/17 07:43:41;;;;;;;2.90;1.93;;;10.70;99.90;;;;;;5031553;28;20504;-70
2022/03/17 07:46:08;;;;;;;1.23;1.13;;;10.80;99.90;;;;;;5031451;28;20450;-71
2022/03/17 07:48:34;;;;;;;3.03;0.93;;;10.80;99.90;;;;;;5031231;28;20457;-70
2022/03/17 07:50:59;;;;;;;1.77;0.80;;;10.90;99.90;;;;;;5031385;28;20519;-70
2022/03/17 07:53:25;;;;;;;3.47;1.13;;;11.00;99.90;;;;;;5031342;28;20188;-70
2022/03/17 07:55:54;;;;;;;2.90;0.60;;;11.20;99.90;;;;;;5031524;28;20175;-70
2022/03/17 07:58:21;;;;;;;0.80;0.77;;;11.30;99.90;;;;;;5032314;28;20222;-70
2022/03/17 08:00:47;;;;;;;1.50;0.70;;;11.40;99.90;;;;;;5035348;28;20422;-70
2022/03/17 08:03:12;;;;;;;1.67;1.03;;;11.50;99.90;;;;;;5034959;28;20426;-70
2022/03/17 08:05:38;;;;;;;0.90;0.70;;;11.50;99.90;;;;;;5035968;28;20441;-70
2022/03/17 08:08:04;;;;;;;0.80;0.63;;;11.50;99.90;;;;;;5034649;28;20269;-70
2022/03/17 08:10:29;;;;;;;1.87;1.73;;;11.50;99.90;;;;;;5036667;28;20175;-71
2022/03/17 08:12:55;;;;;;;0.70;0.53;;;11.50;99.90;;;;;;5035864;28;20203;-70
2022/03/17 08:15:22;;;;;;;1.43;1.33;;;11.50;99.90;;;;;;5035847;28;20195;-70
2022/03/17 08:17:48;;;;;;;4.83;1.10;;;11.50;99.90;;;;;;5035939;28;20168;-70
2022/03/17 08:20:14;;;;;;;1.20;1.13;;;11.50;99.90;;;;;;5035647;28;20980;-70
2022/03/17 08:22:42;;;;;;;2.07;1.30;;;11.50;99.90;;;;;;5035841;28;20179;-70
2022/03/17 08:25:08;;;;;;;1.10;0.87;;;11.60;99.90;;;;;;5035674;28;20227;-70
2022/03/17 08:27:37;;;;;;;2.70;1.37;;;11.50;99.90;;;;;;5034415;28;20767;-71
2022/03/17 08:30:03;;;;;;;1.47;1.37;;;11.60;99.90;;;;;;5035736;28;20414;-70
2022/03/17 08:32:29;;;;;;;1.20;0.83;;;11.60;99.90;;;;;;5035834;28;20462;-70
2022/03/17 08:34:54;;;;;;;2.07;0.60;;;11.50;99.90;;;;;;5034207;28;20457;-70
2022/03/17 08:37:20;;;;;;;1.43;1.33;;;11.60;99.90;;;;;;5034822;28;20207;-70
2022/03/17 08:39:46;;;;;;;1.80;0.93;;;11.60;99.90;;;;;;5034979;28;20190;-70
2022/03/17 08:42:11;;;;;;;1.63;1.50;;;11.60;99.90;;;;;;5034848;28;20229;-70
2022/03/17 08:44:37;;;;;;;0.93;0.90;;;11.60;99.90;;;;;;5034898;28;20843;-70
2022/03/17 08:49:47;;;;;;;1.30;1.20;;;11.60;99.90;;;;;;5035329;28;20274;-70
2022/03/17 08:52:12;;;;;;;5.90;2.60;;;11.50;99.90;;;;;;5034190;28;20511;-70
2022/03/17 08:54:38;;;;;;;0.80;0.60;;;11.50;99.90;;;;;;5033745;28;20282;-70
2022/03/17 08:57:04;;;;;;;1.43;1.33;;;11.50;99.90;;;;;;5033794;28;20233;-70
2022/03/17 08:59:32;;;;;;;6.30;1.73;;;11.50;99.90;;;;;;5034090;28;20569;-70
2022/03/17 09:02:03;;;;;;;1.13;0.87;;;11.50;99.90;;;;;;5033845;28;20847;-70
2022/03/17 09:04:29;;;;;;;2.13;1.67;;;11.40;99.90;;;;;;5034208;28;20864;-70
2022/03/17 09:07:00;;;;;;;1.07;0.87;;;11.40;99.90;;;;;;5033869;28;20418;-70
2022/03/17 09:09:34;;;;;;;1.50;1.03;;;11.40;99.90;;;;;;5033152;28;20285;-70
2022/03/17 09:12:05;;;;;;;0.80;0.60;;;11.40;99.90;;;;;;5034344;28;20446;-70
2022/03/17 09:14:36;;;;;;;4.77;1.37;;;11.40;99.90;;;;;;5034232;28;20434;-70
2022/03/17 09:17:02;;;;;;;1.60;1.13;;;11.40;99.90;;;;;;5033527;28;20414;-70
2022/03/17 09:19:27;;;;;;;1.70;1.60;;;11.40;99.90;;;;;;5033747;28;20833;-70
2022/03/17 09:21:53;;;;;;;1.43;1.33;;;11.40;99.90;;;;;;5034101;28;20426;-70
2022/03/17 09:24:18;;;;;;;1.00;0.90;;;11.40;99.90;;;;;;5033315;28;20194;-70
2022/03/17 09:26:44;;;;;;;1.33;1.23;;;11.40;99.90;;;;;;5033919;28;20218;-70
2022/03/17 09:29:10;;;;;;;0.83;0.73;;;11.40;99.90;;;;;;5033519;28;20187;-70
2022/03/17 09:31:36;;;;;;;1.77;1.17;;;11.50;99.90;;;;;;5033715;28;20420;-70
2022/03/17 09:34:02;;;;;;;2.03;0.97;;;11.50;99.90;;;;;;5033790;28;20188;-70
2022/03/17 09:36:28;;;;;;;0.90;0.73;;;11.50;99.90;;;;;;5033541;28;20218;-70
2022/03/17 09:41:38;;;;;;;6.13;2.03;;;11.50;99.90;;;;;;5033686;28;20257;-70
2022/03/17 09:44:04;;;;;;;1.27;1.17;;;11.50;99.90;;;;;;5032932;28;20481;-71
2022/03/17 09:46:31;;;;;;;1.73;1.37;;;11.50;99.90;;;;;;5032290;28;20178;-70
2022/03/17 09:48:57;;;;;;;6.50;1.43;;;11.50;99.90;;;;;;5033193;28;20453;-71
2022/03/17 09:51:27;;;;;;;1.77;1.67;;;11.40;99.90;;;;;;5033460;28;20425;-71
2022/03/17 09:53:54;;;;;;;1.33;1.23;;;11.40;99.90;;;;;;5033177;28;20500;-70
2022/03/17 09:56:23;;;;;;;0.70;0.50;;;11.40;99.90;;;;;;5033376;28;20955;-70
2022/03/17 09:58:57;;;;;;;0.73;0.63;;;11.50;99.90;;;;;;5031766;28;21175;-70
2022/03/17 10:01:26;;;;;;;1.20;1.10;;;11.50;99.90;;;;;;5033186;28;21020;-70
2022/03/17 10:04:00;;;;;;;0.80;0.77;;;11.50;99.90;;;;;;5033079;28;20441;-70
2022/03/17 10:06:26;;;;;;;3.73;1.07;;;11.50;99.90;;;;;;5033387;28;20426;-70
2022/03/17 10:08:54;;;;;;;1.93;1.73;;;11.50;99.90;;;;;;5032588;28;20460;-70
2022/03/17 10:11:30;;;;;;;0.80;0.60;;;11.40;99.90;;;;;;5032939;28;20414;-70
2022/03/17 10:13:57;;;;;;;1.93;1.03;;;11.40;99.90;;;;;;5033014;28;20441;-70
2022/03/17 10:16:25;;;;;;;0.70;0.60;;;11.40;99.90;;;;;;5032991;28;20444;-70
2022/03/17 10:19:01;;;;;;;1.57;1.47;;;11.40;99.90;;;;;;5032728;28;20460;-70
2022/03/17 10:21:28;;;;;;;0.90;0.60;;;11.40;99.90;;;;;;5031874;28;20417;-70
2022/03/17 10:24:02;;;;;;;0.97;0.80;;;11.50;99.90;;;;;;5032762;28;20438;-69
2022/03/17 10:26:37;;;;;;;1.10;0.67;;;11.50;99.90;;;;;;5031658;28;20425;-70
2022/03/17 10:29:20;;;;;;;1.07;0.93;;;11.70;99.90;;;;;;5032187;28;20467;-70
2022/03/17 10:31:55;;;;;;;1.17;1.07;;;11.90;99.90;;;;;;5032810;28;20437;-70
2022/03/17 10:34:22;;;;;;;4.50;2.40;;;12.10;99.90;;;;;;5016878;28;20437;-70
2022/03/17 10:36:49;;;;;;;0.70;0.60;;;12.30;99.90;;;;;;5032656;28;20410;-70
2022/03/17 10:39:15;;;;;;;1.30;1.20;;;12.40;99.90;;;;;;5031933;28;20418;-70
2022/03/17 10:41:45;;;;;;;1.17;0.77;;;12.60;99.90;;;;;;5032577;28;20446;-70
2022/03/17 10:44:16;;;;;;;0.80;0.60;;;12.80;99.90;;;;;;5032393;28;20452;-70
2022/03/17 10:47:01;;;;;;;0.70;0.50;;;12.90;99.90;;;;;;5032570;28;20433;-70
2022/03/17 10:49:27;;;;;;;0.70;0.60;;;13.10;99.90;;;;;;5031014;28;20457;-70
2022/03/17 10:51:55;;;;;;;0.87;0.87;;;13.20;99.90;;;;;;5031169;28;20437;-69
2022/03/17 10:54:21;;;;;;;0.70;0.50;;;13.20;99.90;;;;;;5032192;28;20974;-70
2022/03/17 10:57:09;;;;;;;0.70;0.50;;;13.30;99.90;;;;;;5032222;28;20412;-70
2022/03/17 10:59:43;;;;;;;0.70;0.50;;;13.40;99.90;;;;;;5031856;28;20423;-70
2022/03/17 11:02:12;;;;;;;0.70;0.50;;;13.50;99.90;;;;;;5032193;28;20799;-71
2022/03/17 11:04:40;;;;;;;0.70;0.50;;;13.50;99.90;;;;;;5032065;28;20441;-70
2022/03/17 11:07:13;;;;;;;0.90;0.60;;;13.70;99.90;;;;;;5031858;28;20844;-70
2022/03/17 11:09:40;;;;;;;0.70;0.50;;;13.90;99.90;;;;;;5031895;28;20450;-69
2022/03/17 11:12:11;;;;;;;1.00;0.90;;;14.20;99.90;;;;;;5032032;28;20426;-71
2022/03/17 11:14:47;;;;;;;1.10;1.00;;;14.70;99.90;;;;;;5031536;28;20438;-70
2022/03/17 11:17:18;;;;;;;0.70;0.60;;;15.00;99.90;;;;;;5031394;28;20493;-71
2022/03/17 11:19:44;;;;;;;10.23;1.77;;;15.30;99.90;;;;;;5030317;28;20445;-70
2022/03/17 11:22:14;;;;;;;0.70;0.50;;;15.70;99.90;;;;;;5030884;28;20418;-69
2022/03/17 11:24:40;;;;;;;0.80;0.63;;;15.90;99.90;;;;;;5031702;28;20434;-69
2022/03/17 11:27:12;;;;;;;0.83;0.83;;;16.00;99.90;;;;;;5031490;28;20851;-69
2022/03/17 11:29:39;;;;;;;0.90;0.70;;;16.10;99.90;;;;;;5031705;28;20561;-69
2022/03/17 11:32:08;;;;;;;2.80;0.90;;;16.00;99.90;;;;;;5031464;28;20426;-70
2022/03/17 11:34:47;;;;;;;0.80;0.73;;;15.90;99.90;;;;;;5030670;28;20442;-70
2022/03/17 11:37:19;;;;;;;0.80;0.70;;;15.80;99.90;;;;;;5022669;28;20425;-70
2022/03/17 11:39:53;;;;;;;0.70;0.50;;;15.60;99.90;;;;;;5031759;28;20538;-70
2022/03/17 11:42:33;;;;;;;0.70;0.50;;;15.50;99.90;;;;;;5031760;28;20781;-70
2022/03/17 11:45:13;;;;;;;2.53;2.43;;;15.50;99.90;;;;;;5031558;28;20438;-70
2022/03/17 11:47:44;;;;;;;0.70;0.50;;;15.40;99.90;;;;;;5031175;28;20452;-69
2022/03/17 11:50:38;;;;;;;0.70;0.50;;;15.40;99.90;;;;;;5031614;28;20418;-70
2022/03/17 11:53:14;;;;;;;0.90;0.70;;;15.40;99.90;;;;;;5030088;28;20421;-70
2022/03/17 11:55:43;;;;;;;0.70;0.50;;;15.50;99.90;;;;;;5031598;28;20434;-70
2022/03/17 11:58:20;;;;;;;0.83;0.70;;;15.60;99.90;;;;;;5031110;28;20422;-70
2022/03/17 12:00:47;;;;;;;0.70;0.50;;;15.70;99.90;;;;;;5031640;28;20428;-70
2022/03/17 12:03:13;;;;;;;0.80;0.80;;;15.70;99.90;;;;;;5030420;28;20574;-70
2022/03/17 12:05:39;;;;;;;1.00;0.90;;;15.70;99.90;;;;;;5031488;28;20513;-69
2022/03/17 12:08:05;;;;;;;0.90;0.70;;;15.70;99.90;;;;;;5030621;28;20927;-69
2022/03/17 12:11:04;;;;;;;0.80;0.60;;;15.80;99.90;;;;;;5031413;28;20446;-69
2022/03/17 12:13:29;;;;;;;0.90;0.60;;;16.00;99.90;;;;;;5030998;28;20199;-68
2022/03/17 12:15:55;;;;;;;0.70;0.50;;;16.10;99.90;;;;;;5030895;28;20505;-69
2022/03/17 12:18:21;;;;;;;0.80;0.60;;;16.30;99.90;;;;;;5030859;28;20187;-68
2022/03/17 12:20:47;;;;;;;1.53;0.90;;;16.50;99.90;;;;;;5031096;28;20545;-68
2022/03/17 12:23:45;;;;;;;0.70;0.50;;;16.70;99.90;;;;;;5031071;28;20566;-69
2022/03/17 12:26:11;;;;;;;1.00;0.90;;;16.70;99.90;;;;;;5025571;28;20776;-69
2022/03/17 12:28:46;;;;;;;0.80;0.50;;;16.80;99.90;;;;;;5030559;28;20462;-68
2022/03/17 12:31:14;;;;;;;0.97;0.87;;;17.00;99.90;;;;;;5031016;28;20417;-68
2022/03/17 12:33:43;;;;;;;0.80;0.60;;;17.20;99.90;;;;;;5030772;28;20441;-68
2022/03/17 12:36:10;;;;;;;0.90;0.80;;;17.40;99.90;;;;;;5030982;28;20423;-69
2022/03/17 12:38:37;;;;;;;0.80;0.70;;;17.60;99.90;;;;;;5023722;28;20419;-68
2022/03/17 12:41:12;;;;;;;0.77;0.63;;;17.80;99.90;;;;;;5019708;28;20442;-68
2022/03/17 12:43:38;;;;;;;0.70;0.60;;;17.90;99.90;;;;;;5030727;28;20473;-68
2022/03/17 12:46:04;;;;;;;0.73;0.60;;;18.00;99.30;;;;;;5034229;28;20834;-68
2022/03/17 12:48:31;;;;;;;1.00;0.90;;;18.10;98.20;;;;;;5034022;28;20261;-68
2022/03/17 12:51:05;;;;;;;1.60;1.40;;;18.10;97.30;;;;;;5034116;28;20419;-68
2022/03/17 12:53:30;;;;;;;0.70;0.50;;;18.10;96.70;;;;;;5034124;28;20449;-68
2022/03/17 12:55:56;;;;;;;1.00;0.80;;;18.00;96.30;;;;;;5034069;28;20850;-69
2022/03/17 12:58:22;;;;;;;1.00;0.90;;;17.80;95.90;;;;;;5033525;28;20179;-69
2022/03/17 13:00:48;;;;;;;2.60;2.10;;;17.70;95.60;;;;;;5034116;28;20164;-69
2022/03/17 13:03:20;;;;;;;1.67;0.70;;;17.60;95.40;;;;;;5034030;28;20425;-68
2022/03/17 13:08:36;;;;;;;0.80;0.80;;;17.50;96.30;;;;;;5033623;28;20812;-68